sensor_id;sensor_type;location;lat;lon;timestamp;P1;durP1;ratioP1;P2;durP2;ratioP2
46765;SDS011;32527;51.986;5.842;2022-12-10T00:01:47;74.25;;;25.95;;
46765;SDS011;32527;51.986;5.842;2022-12-10T00:04:14;68.43;;;25.13;;
46765;SDS011;32527;51.986;5.842;2022-12-10T00:06:41;77.05;;;24.38;;
46765;SDS011;32527;51.986;5.842;2022-12-10T00:09:09;76.20;;;24.77;;
46765;SDS011;32527;51.986;5.842;2022-12-10T00:11:37;70.13;;;24.20;;
46765;SDS011;32527;51.986;5.842;2022-12-10T00:14:03;70.43;;;23.77;;
46765;SDS011;32527;51.986;5.842;2022-12-10T00:16:29;77.72;;;26.38;;
46765;SDS011;32527;51.986;5.842;2022-12-10T00:18:56;81.32;;;26.85;;
46765;SDS011;32527;51.986;5.842;2022-12-10T00:21:23;81.32;;;26.48;;
46765;SDS011;32527;51.986;5.842;2022-12-10T00:23:50;75.40;;;25.35;;
46765;SDS011;32527;51.986;5.842;2022-12-10T00:26:18;73.10;;;26.00;;
46765;SDS011;32527;51.986;5.842;2022-12-10T00:28:54;81.25;;;24.77;;
46765;SDS011;32527;51.986;5.842;2022-12-10T00:31:25;83.80;;;25.10;;
46765;SDS011;32527;51.986;5.842;2022-12-10T00:33:55;85.78;;;28.65;;
46765;SDS011;32527;51.986;5.842;2022-12-10T00:36:24;87.40;;;28.55;;
46765;SDS011;32527;51.986;5.842;2022-12-10T00:38:52;83.43;;;27.38;;
46765;SDS011;32527;51.986;5.842;2022-12-10T00:41:18;77.18;;;26.95;;
46765;SDS011;32527;51.986;5.842;2022-12-10T00:43:44;82.50;;;28.58;;
46765;SDS011;32527;51.986;5.842;2022-12-10T00:46:11;74.53;;;27.35;;
46765;SDS011;32527;51.986;5.842;2022-12-10T00:48:39;67.50;;;24.13;;
46765;SDS011;32527;51.986;5.842;2022-12-10T00:51:13;74.55;;;26.13;;
46765;SDS011;32527;51.986;5.842;2022-12-10T00:53:42;72.50;;;26.42;;
46765;SDS011;32527;51.986;5.842;2022-12-10T00:56:12;78.40;;;28.08;;
46765;SDS011;32527;51.986;5.842;2022-12-10T00:58:39;77.10;;;25.33;;
46765;SDS011;32527;51.986;5.842;2022-12-10T01:01:10;74.93;;;25.23;;
46765;SDS011;32527;51.986;5.842;2022-12-10T01:03:51;78.38;;;26.45;;
46765;SDS011;32527;51.986;5.842;2022-12-10T01:06:30;76.03;;;26.80;;
46765;SDS011;32527;51.986;5.842;2022-12-10T01:08:57;78.55;;;25.40;;
46765;SDS011;32527;51.986;5.842;2022-12-10T01:11:29;75.72;;;24.85;;
46765;SDS011;32527;51.986;5.842;2022-12-10T01:13:56;68.13;;;25.13;;
46765;SDS011;32527;51.986;5.842;2022-12-10T01:16:23;69.90;;;23.92;;
46765;SDS011;32527;51.986;5.842;2022-12-10T01:18:52;63.10;;;23.33;;
46765;SDS011;32527;51.986;5.842;2022-12-10T01:21:19;72.15;;;25.67;;
46765;SDS011;32527;51.986;5.842;2022-12-10T01:23:46;68.80;;;23.95;;
46765;SDS011;32527;51.986;5.842;2022-12-10T01:26:15;71.95;;;25.30;;
46765;SDS011;32527;51.986;5.842;2022-12-10T01:28:43;75.85;;;27.33;;
46765;SDS011;32527;51.986;5.842;2022-12-10T01:31:10;77.53;;;24.33;;
46765;SDS011;32527;51.986;5.842;2022-12-10T01:33:38;65.13;;;23.80;;
46765;SDS011;32527;51.986;5.842;2022-12-10T01:36:09;79.50;;;26.70;;
46765;SDS011;32527;51.986;5.842;2022-12-10T01:38:36;72.28;;;25.23;;
46765;SDS011;32527;51.986;5.842;2022-12-10T01:41:04;75.15;;;24.63;;
46765;SDS011;32527;51.986;5.842;2022-12-10T01:46:35;72.90;;;24.20;;
46765;SDS011;32527;51.986;5.842;2022-12-10T01:49:03;72.07;;;26.35;;
46765;SDS011;32527;51.986;5.842;2022-12-10T01:51:33;67.90;;;24.58;;
46765;SDS011;32527;51.986;5.842;2022-12-10T01:54:02;68.88;;;24.50;;
46765;SDS011;32527;51.986;5.842;2022-12-10T01:56:29;69.63;;;23.90;;
46765;SDS011;32527;51.986;5.842;2022-12-10T01:58:59;71.28;;;26.90;;
46765;SDS011;32527;51.986;5.842;2022-12-10T02:01:28;78.45;;;24.17;;
46765;SDS011;32527;51.986;5.842;2022-12-10T02:06:44;75.70;;;24.38;;
46765;SDS011;32527;51.986;5.842;2022-12-10T02:09:20;68.43;;;25.27;;
46765;SDS011;32527;51.986;5.842;2022-12-10T02:12:11;69.30;;;24.50;;
46765;SDS011;32527;51.986;5.842;2022-12-10T02:17:20;67.30;;;25.07;;
46765;SDS011;32527;51.986;5.842;2022-12-10T02:20:09;70.85;;;24.80;;
46765;SDS011;32527;51.986;5.842;2022-12-10T02:22:41;66.95;;;23.58;;
46765;SDS011;32527;51.986;5.842;2022-12-10T02:25:13;65.60;;;23.20;;
46765;SDS011;32527;51.986;5.842;2022-12-10T02:28:03;65.00;;;24.00;;
46765;SDS011;32527;51.986;5.842;2022-12-10T02:30:39;60.42;;;23.20;;
46765;SDS011;32527;51.986;5.842;2022-12-10T02:33:07;64.03;;;23.45;;
46765;SDS011;32527;51.986;5.842;2022-12-10T02:35:34;69.70;;;24.08;;
46765;SDS011;32527;51.986;5.842;2022-12-10T02:38:06;71.82;;;24.15;;
46765;SDS011;32527;51.986;5.842;2022-12-10T02:40:41;75.60;;;24.85;;
46765;SDS011;32527;51.986;5.842;2022-12-10T02:43:13;87.10;;;24.63;;
46765;SDS011;32527;51.986;5.842;2022-12-10T02:45:42;72.65;;;26.15;;
46765;SDS011;32527;51.986;5.842;2022-12-10T02:48:10;75.43;;;23.80;;
46765;SDS011;32527;51.986;5.842;2022-12-10T02:50:40;70.80;;;24.08;;
46765;SDS011;32527;51.986;5.842;2022-12-10T02:53:06;67.60;;;23.92;;
46765;SDS011;32527;51.986;5.842;2022-12-10T02:55:44;83.35;;;26.60;;
46765;SDS011;32527;51.986;5.842;2022-12-10T03:00:52;71.80;;;24.73;;
46765;SDS011;32527;51.986;5.842;2022-12-10T03:06:22;69.07;;;23.98;;
46765;SDS011;32527;51.986;5.842;2022-12-10T03:09:10;71.43;;;25.10;;
46765;SDS011;32527;51.986;5.842;2022-12-10T03:11:42;75.47;;;24.38;;
46765;SDS011;32527;51.986;5.842;2022-12-10T03:14:30;69.40;;;25.58;;
46765;SDS011;32527;51.986;5.842;2022-12-10T03:16:56;66.38;;;23.35;;
46765;SDS011;32527;51.986;5.842;2022-12-10T03:19:37;68.20;;;24.05;;
46765;SDS011;32527;51.986;5.842;2022-12-10T03:22:11;63.57;;;23.17;;
46765;SDS011;32527;51.986;5.842;2022-12-10T03:24:38;73.55;;;23.98;;
46765;SDS011;32527;51.986;5.842;2022-12-10T03:27:07;76.45;;;25.90;;
46765;SDS011;32527;51.986;5.842;2022-12-10T03:29:39;81.47;;;25.73;;
46765;SDS011;32527;51.986;5.842;2022-12-10T03:32:10;84.53;;;26.55;;
46765;SDS011;32527;51.986;5.842;2022-12-10T03:34:36;75.18;;;25.08;;
46765;SDS011;32527;51.986;5.842;2022-12-10T03:37:03;78.15;;;26.55;;
46765;SDS011;32527;51.986;5.842;2022-12-10T03:39:30;71.07;;;25.73;;
46765;SDS011;32527;51.986;5.842;2022-12-10T03:41:56;71.85;;;26.10;;
46765;SDS011;32527;51.986;5.842;2022-12-10T03:44:26;72.50;;;26.38;;
46765;SDS011;32527;51.986;5.842;2022-12-10T03:46:56;69.15;;;25.23;;
46765;SDS011;32527;51.986;5.842;2022-12-10T03:49:23;72.45;;;25.10;;
46765;SDS011;32527;51.986;5.842;2022-12-10T03:51:49;72.00;;;24.63;;
46765;SDS011;32527;51.986;5.842;2022-12-10T03:54:15;65.70;;;23.40;;
46765;SDS011;32527;51.986;5.842;2022-12-10T03:56:41;79.70;;;26.90;;
46765;SDS011;32527;51.986;5.842;2022-12-10T03:59:07;71.20;;;24.38;;
46765;SDS011;32527;51.986;5.842;2022-12-10T04:01:33;71.72;;;24.20;;
46765;SDS011;32527;51.986;5.842;2022-12-10T04:03:59;82.15;;;25.75;;
46765;SDS011;32527;51.986;5.842;2022-12-10T04:06:25;73.15;;;25.67;;
46765;SDS011;32527;51.986;5.842;2022-12-10T04:08:51;77.18;;;26.13;;
46765;SDS011;32527;51.986;5.842;2022-12-10T04:11:18;75.97;;;27.98;;
46765;SDS011;32527;51.986;5.842;2022-12-10T04:13:44;72.63;;;26.85;;
46765;SDS011;32527;51.986;5.842;2022-12-10T04:16:29;87.50;;;28.83;;
46765;SDS011;32527;51.986;5.842;2022-12-10T04:18:57;78.60;;;26.33;;
46765;SDS011;32527;51.986;5.842;2022-12-10T04:21:24;89.13;;;29.35;;
46765;SDS011;32527;51.986;5.842;2022-12-10T04:24:10;80.43;;;28.40;;
46765;SDS011;32527;51.986;5.842;2022-12-10T04:26:55;94.60;;;29.27;;
46765;SDS011;32527;51.986;5.842;2022-12-10T04:29:23;86.97;;;27.70;;
46765;SDS011;32527;51.986;5.842;2022-12-10T04:31:53;93.43;;;30.23;;
46765;SDS011;32527;51.986;5.842;2022-12-10T04:34:22;81.30;;;28.42;;
46765;SDS011;32527;51.986;5.842;2022-12-10T04:36:48;86.18;;;29.10;;
46765;SDS011;32527;51.986;5.842;2022-12-10T04:39:14;86.70;;;29.80;;
46765;SDS011;32527;51.986;5.842;2022-12-10T04:41:41;103.35;;;31.33;;
46765;SDS011;32527;51.986;5.842;2022-12-10T04:44:08;97.78;;;30.63;;
46765;SDS011;32527;51.986;5.842;2022-12-10T04:46:35;81.68;;;29.83;;
46765;SDS011;32527;51.986;5.842;2022-12-10T04:49:01;97.80;;;31.90;;
46765;SDS011;32527;51.986;5.842;2022-12-10T04:51:27;102.50;;;33.10;;
46765;SDS011;32527;51.986;5.842;2022-12-10T04:53:53;89.65;;;32.03;;
46765;SDS011;32527;51.986;5.842;2022-12-10T04:56:19;105.38;;;33.50;;
46765;SDS011;32527;51.986;5.842;2022-12-10T04:58:45;96.03;;;32.25;;
46765;SDS011;32527;51.986;5.842;2022-12-10T05:01:11;126.05;;;35.83;;
46765;SDS011;32527;51.986;5.842;2022-12-10T05:03:38;112.38;;;34.55;;
46765;SDS011;32527;51.986;5.842;2022-12-10T05:06:04;110.35;;;33.70;;
46765;SDS011;32527;51.986;5.842;2022-12-10T05:08:32;103.15;;;33.15;;
46765;SDS011;32527;51.986;5.842;2022-12-10T05:11:02;101.82;;;33.67;;
46765;SDS011;32527;51.986;5.842;2022-12-10T05:13:37;106.18;;;33.65;;
46765;SDS011;32527;51.986;5.842;2022-12-10T05:16:07;111.22;;;33.05;;
46765;SDS011;32527;51.986;5.842;2022-12-10T05:18:35;103.80;;;33.60;;
46765;SDS011;32527;51.986;5.842;2022-12-10T05:21:02;114.88;;;32.35;;
46765;SDS011;32527;51.986;5.842;2022-12-10T05:23:30;127.55;;;35.00;;
46765;SDS011;32527;51.986;5.842;2022-12-10T05:28:30;114.75;;;33.55;;
46765;SDS011;32527;51.986;5.842;2022-12-10T05:30:58;115.43;;;33.13;;
46765;SDS011;32527;51.986;5.842;2022-12-10T05:33:24;118.63;;;36.00;;
46765;SDS011;32527;51.986;5.842;2022-12-10T05:35:57;136.07;;;37.33;;
46765;SDS011;32527;51.986;5.842;2022-12-10T05:38:25;125.32;;;36.00;;
46765;SDS011;32527;51.986;5.842;2022-12-10T05:40:52;124.85;;;35.58;;
46765;SDS011;32527;51.986;5.842;2022-12-10T05:43:18;119.13;;;34.15;;
46765;SDS011;32527;51.986;5.842;2022-12-10T05:45:44;114.18;;;33.83;;
46765;SDS011;32527;51.986;5.842;2022-12-10T05:48:10;113.32;;;33.80;;
46765;SDS011;32527;51.986;5.842;2022-12-10T05:50:38;112.97;;;35.53;;
46765;SDS011;32527;51.986;5.842;2022-12-10T05:53:04;139.00;;;36.53;;
46765;SDS011;32527;51.986;5.842;2022-12-10T05:55:30;116.63;;;34.53;;
46765;SDS011;32527;51.986;5.842;2022-12-10T05:57:58;127.00;;;34.83;;
46765;SDS011;32527;51.986;5.842;2022-12-10T06:00:24;129.32;;;34.03;;
46765;SDS011;32527;51.986;5.842;2022-12-10T06:02:50;166.75;;;34.65;;
46765;SDS011;32527;51.986;5.842;2022-12-10T06:05:16;112.22;;;33.33;;
46765;SDS011;32527;51.986;5.842;2022-12-10T06:07:42;135.65;;;36.60;;
46765;SDS011;32527;51.986;5.842;2022-12-10T06:10:08;128.63;;;34.13;;
46765;SDS011;32527;51.986;5.842;2022-12-10T06:12:35;144.30;;;34.10;;
46765;SDS011;32527;51.986;5.842;2022-12-10T06:15:01;141.65;;;36.28;;
46765;SDS011;32527;51.986;5.842;2022-12-10T06:17:27;166.07;;;35.90;;
46765;SDS011;32527;51.986;5.842;2022-12-10T06:19:53;152.32;;;36.38;;
46765;SDS011;32527;51.986;5.842;2022-12-10T06:22:19;125.07;;;34.13;;
46765;SDS011;32527;51.986;5.842;2022-12-10T06:24:45;138.55;;;36.53;;
46765;SDS011;32527;51.986;5.842;2022-12-10T06:27:11;126.85;;;32.25;;
46765;SDS011;32527;51.986;5.842;2022-12-10T06:29:37;124.00;;;31.55;;
46765;SDS011;32527;51.986;5.842;2022-12-10T06:32:02;143.82;;;38.05;;
46765;SDS011;32527;51.986;5.842;2022-12-10T06:34:28;117.97;;;33.55;;
46765;SDS011;32527;51.986;5.842;2022-12-10T06:36:54;128.40;;;35.33;;
46765;SDS011;32527;51.986;5.842;2022-12-10T06:39:20;148.10;;;39.53;;
46765;SDS011;32527;51.986;5.842;2022-12-10T06:41:46;165.07;;;37.47;;
46765;SDS011;32527;51.986;5.842;2022-12-10T06:44:13;119.03;;;32.55;;
46765;SDS011;32527;51.986;5.842;2022-12-10T06:46:39;119.78;;;31.17;;
46765;SDS011;32527;51.986;5.842;2022-12-10T06:49:05;115.57;;;33.90;;
46765;SDS011;32527;51.986;5.842;2022-12-10T06:51:32;107.97;;;31.33;;
46765;SDS011;32527;51.986;5.842;2022-12-10T06:53:58;122.15;;;30.90;;
46765;SDS011;32527;51.986;5.842;2022-12-10T06:56:23;104.57;;;29.27;;
46765;SDS011;32527;51.986;5.842;2022-12-10T06:58:51;150.32;;;31.10;;
46765;SDS011;32527;51.986;5.842;2022-12-10T07:01:19;121.65;;;32.58;;
46765;SDS011;32527;51.986;5.842;2022-12-10T07:03:49;127.95;;;32.72;;
46765;SDS011;32527;51.986;5.842;2022-12-10T07:06:16;105.63;;;28.30;;
46765;SDS011;32527;51.986;5.842;2022-12-10T07:08:44;140.82;;;31.42;;
46765;SDS011;32527;51.986;5.842;2022-12-10T07:11:11;108.40;;;28.45;;
46765;SDS011;32527;51.986;5.842;2022-12-10T07:13:38;112.45;;;29.23;;
46765;SDS011;32527;51.986;5.842;2022-12-10T07:16:18;98.78;;;30.27;;
46765;SDS011;32527;51.986;5.842;2022-12-10T07:18:45;108.18;;;28.98;;
46765;SDS011;32527;51.986;5.842;2022-12-10T07:21:13;119.07;;;29.00;;
46765;SDS011;32527;51.986;5.842;2022-12-10T07:23:40;112.85;;;30.10;;
46765;SDS011;32527;51.986;5.842;2022-12-10T07:26:06;93.07;;;27.10;;
46765;SDS011;32527;51.986;5.842;2022-12-10T07:28:32;112.97;;;30.48;;
46765;SDS011;32527;51.986;5.842;2022-12-10T07:31:02;99.57;;;28.10;;
46765;SDS011;32527;51.986;5.842;2022-12-10T07:33:28;98.28;;;27.88;;
46765;SDS011;32527;51.986;5.842;2022-12-10T07:35:54;96.65;;;28.85;;
46765;SDS011;32527;51.986;5.842;2022-12-10T07:38:21;93.57;;;27.17;;
46765;SDS011;32527;51.986;5.842;2022-12-10T07:40:47;96.00;;;26.35;;
46765;SDS011;32527;51.986;5.842;2022-12-10T07:43:13;105.38;;;26.83;;
46765;SDS011;32527;51.986;5.842;2022-12-10T07:45:39;95.15;;;26.42;;
46765;SDS011;32527;51.986;5.842;2022-12-10T07:48:05;114.78;;;27.17;;
46765;SDS011;32527;51.986;5.842;2022-12-10T07:50:30;84.78;;;26.63;;
46765;SDS011;32527;51.986;5.842;2022-12-10T07:52:56;100.35;;;25.52;;
46765;SDS011;32527;51.986;5.842;2022-12-10T07:55:22;107.10;;;26.80;;
46765;SDS011;32527;51.986;5.842;2022-12-10T07:57:48;99.10;;;27.60;;
46765;SDS011;32527;51.986;5.842;2022-12-10T08:00:15;93.10;;;25.40;;
46765;SDS011;32527;51.986;5.842;2022-12-10T08:02:41;121.15;;;27.85;;
46765;SDS011;32527;51.986;5.842;2022-12-10T08:05:07;95.95;;;25.58;;
46765;SDS011;32527;51.986;5.842;2022-12-10T08:07:33;89.70;;;25.83;;
46765;SDS011;32527;51.986;5.842;2022-12-10T08:09:59;92.97;;;27.83;;
46765;SDS011;32527;51.986;5.842;2022-12-10T08:12:25;90.18;;;26.73;;
46765;SDS011;32527;51.986;5.842;2022-12-10T08:14:51;93.03;;;26.05;;
46765;SDS011;32527;51.986;5.842;2022-12-10T08:17:17;112.95;;;28.70;;
46765;SDS011;32527;51.986;5.842;2022-12-10T08:19:43;112.00;;;27.23;;
46765;SDS011;32527;51.986;5.842;2022-12-10T08:22:09;126.45;;;27.30;;
46765;SDS011;32527;51.986;5.842;2022-12-10T08:24:35;102.65;;;25.88;;
46765;SDS011;32527;51.986;5.842;2022-12-10T08:27:01;103.32;;;26.80;;
46765;SDS011;32527;51.986;5.842;2022-12-10T08:29:27;107.95;;;25.92;;
46765;SDS011;32527;51.986;5.842;2022-12-10T08:31:54;113.07;;;29.70;;
46765;SDS011;32527;51.986;5.842;2022-12-10T08:34:20;123.05;;;28.42;;
46765;SDS011;32527;51.986;5.842;2022-12-10T08:36:46;94.03;;;25.73;;
46765;SDS011;32527;51.986;5.842;2022-12-10T08:39:12;102.10;;;27.55;;
46765;SDS011;32527;51.986;5.842;2022-12-10T08:41:41;92.78;;;25.45;;
46765;SDS011;32527;51.986;5.842;2022-12-10T08:44:07;115.63;;;28.75;;
46765;SDS011;32527;51.986;5.842;2022-12-10T08:46:34;88.40;;;24.75;;
46765;SDS011;32527;51.986;5.842;2022-12-10T08:49:00;84.18;;;23.77;;
46765;SDS011;32527;51.986;5.842;2022-12-10T08:51:26;94.25;;;25.27;;
46765;SDS011;32527;51.986;5.842;2022-12-10T08:53:53;99.10;;;25.10;;
46765;SDS011;32527;51.986;5.842;2022-12-10T08:56:19;96.40;;;25.02;;
46765;SDS011;32527;51.986;5.842;2022-12-10T08:58:45;97.68;;;25.25;;
46765;SDS011;32527;51.986;5.842;2022-12-10T09:01:12;90.22;;;24.00;;
46765;SDS011;32527;51.986;5.842;2022-12-10T09:03:39;116.07;;;26.65;;
46765;SDS011;32527;51.986;5.842;2022-12-10T09:06:06;100.28;;;27.27;;
46765;SDS011;32527;51.986;5.842;2022-12-10T09:08:35;98.75;;;26.17;;
46765;SDS011;32527;51.986;5.842;2022-12-10T09:11:08;75.03;;;20.77;;
46765;SDS011;32527;51.986;5.842;2022-12-10T09:13:45;99.50;;;25.42;;
46765;SDS011;32527;51.986;5.842;2022-12-10T09:16:13;89.82;;;23.27;;
46765;SDS011;32527;51.986;5.842;2022-12-10T09:18:39;96.95;;;25.00;;
46765;SDS011;32527;51.986;5.842;2022-12-10T09:21:06;98.15;;;26.05;;
46765;SDS011;32527;51.986;5.842;2022-12-10T09:23:34;107.25;;;24.65;;
46765;SDS011;32527;51.986;5.842;2022-12-10T09:26:00;116.72;;;27.25;;
46765;SDS011;32527;51.986;5.842;2022-12-10T09:28:26;95.60;;;26.27;;
46765;SDS011;32527;51.986;5.842;2022-12-10T09:30:59;117.18;;;26.17;;
46765;SDS011;32527;51.986;5.842;2022-12-10T09:33:26;103.07;;;26.40;;
46765;SDS011;32527;51.986;5.842;2022-12-10T09:35:52;84.57;;;24.55;;
46765;SDS011;32527;51.986;5.842;2022-12-10T09:38:18;99.47;;;26.13;;
46765;SDS011;32527;51.986;5.842;2022-12-10T09:40:51;94.95;;;25.70;;
46765;SDS011;32527;51.986;5.842;2022-12-10T09:46:11;107.72;;;25.15;;
46765;SDS011;32527;51.986;5.842;2022-12-10T09:51:33;98.32;;;25.23;;
46765;SDS011;32527;51.986;5.842;2022-12-10T09:54:02;96.60;;;24.60;;
46765;SDS011;32527;51.986;5.842;2022-12-10T09:56:37;95.22;;;25.05;;
46765;SDS011;32527;51.986;5.842;2022-12-10T09:59:19;95.53;;;26.48;;
46765;SDS011;32527;51.986;5.842;2022-12-10T10:01:58;93.57;;;25.10;;
46765;SDS011;32527;51.986;5.842;2022-12-10T10:04:25;101.70;;;24.10;;
46765;SDS011;32527;51.986;5.842;2022-12-10T10:06:52;78.22;;;23.80;;
46765;SDS011;32527;51.986;5.842;2022-12-10T10:09:18;88.30;;;23.05;;
46765;SDS011;32527;51.986;5.842;2022-12-10T10:11:44;86.57;;;23.38;;
46765;SDS011;32527;51.986;5.842;2022-12-10T10:14:15;105.15;;;26.77;;
46765;SDS011;32527;51.986;5.842;2022-12-10T10:17:02;89.75;;;25.13;;
46765;SDS011;32527;51.986;5.842;2022-12-10T10:19:34;93.40;;;25.45;;
46765;SDS011;32527;51.986;5.842;2022-12-10T10:22:03;91.47;;;24.75;;
46765;SDS011;32527;51.986;5.842;2022-12-10T10:24:40;92.50;;;24.25;;
46765;SDS011;32527;51.986;5.842;2022-12-10T10:27:14;105.65;;;27.35;;
46765;SDS011;32527;51.986;5.842;2022-12-10T10:29:45;96.32;;;24.60;;
46765;SDS011;32527;51.986;5.842;2022-12-10T10:32:15;117.82;;;26.20;;
46765;SDS011;32527;51.986;5.842;2022-12-10T10:34:43;100.05;;;26.38;;
46765;SDS011;32527;51.986;5.842;2022-12-10T10:37:20;86.07;;;24.60;;
46765;SDS011;32527;51.986;5.842;2022-12-10T10:42:36;97.85;;;25.95;;
46765;SDS011;32527;51.986;5.842;2022-12-10T10:45:06;80.00;;;21.85;;
46765;SDS011;32527;51.986;5.842;2022-12-10T10:47:52;95.38;;;24.30;;
46765;SDS011;32527;51.986;5.842;2022-12-10T10:50:38;91.87;;;21.30;;
46765;SDS011;32527;51.986;5.842;2022-12-10T10:53:25;82.85;;;25.13;;
46765;SDS011;32527;51.986;5.842;2022-12-10T10:56:14;85.00;;;22.50;;
46765;SDS011;32527;51.986;5.842;2022-12-10T11:01:17;111.75;;;23.42;;
46765;SDS011;32527;51.986;5.842;2022-12-10T11:03:51;88.82;;;24.80;;
46765;SDS011;32527;51.986;5.842;2022-12-10T11:06:20;117.15;;;24.25;;
46765;SDS011;32527;51.986;5.842;2022-12-10T11:08:46;80.45;;;22.50;;
46765;SDS011;32527;51.986;5.842;2022-12-10T11:11:18;92.55;;;25.13;;
46765;SDS011;32527;51.986;5.842;2022-12-10T11:13:45;85.30;;;23.85;;
46765;SDS011;32527;51.986;5.842;2022-12-10T11:18:41;81.65;;;22.35;;
46765;SDS011;32527;51.986;5.842;2022-12-10T11:21:17;70.20;;;22.25;;
46765;SDS011;32527;51.986;5.842;2022-12-10T11:23:47;68.20;;;22.15;;
46765;SDS011;32527;51.986;5.842;2022-12-10T11:31:39;77.28;;;21.33;;
46765;SDS011;32527;51.986;5.842;2022-12-10T11:34:14;77.22;;;21.58;;
46765;SDS011;32527;51.986;5.842;2022-12-10T11:37:05;78.55;;;22.48;;
46765;SDS011;32527;51.986;5.842;2022-12-10T11:42:38;83.78;;;24.10;;
46765;SDS011;32527;51.986;5.842;2022-12-10T11:45:47;76.00;;;22.38;;
46765;SDS011;32527;51.986;5.842;2022-12-10T11:51:00;57.90;;;17.05;;
46765;SDS011;32527;51.986;5.842;2022-12-10T11:56:33;77.95;;;22.58;;
46765;SDS011;32527;51.986;5.842;2022-12-10T12:12:33;74.05;;;19.20;;
46765;SDS011;32527;51.986;5.842;2022-12-10T12:15:17;86.78;;;21.58;;
46765;SDS011;32527;51.986;5.842;2022-12-10T12:17:53;82.20;;;22.58;;
46765;SDS011;32527;51.986;5.842;2022-12-10T12:23:13;74.32;;;19.10;;
46765;SDS011;32527;51.986;5.842;2022-12-10T12:25:41;137.00;;;23.23;;
46765;SDS011;32527;51.986;5.842;2022-12-10T12:28:18;82.25;;;22.30;;
46765;SDS011;32527;51.986;5.842;2022-12-10T12:30:49;142.88;;;26.05;;
46765;SDS011;32527;51.986;5.842;2022-12-10T12:33:45;83.70;;;21.92;;
46765;SDS011;32527;51.986;5.842;2022-12-10T12:36:18;73.18;;;22.98;;
46765;SDS011;32527;51.986;5.842;2022-12-10T12:47:50;72.90;;;19.77;;
46765;SDS011;32527;51.986;5.842;2022-12-10T12:49:56;70.65;;;21.73;;
46765;SDS011;32527;51.986;5.842;2022-12-10T12:52:29;70.15;;;19.15;;
46765;SDS011;32527;51.986;5.842;2022-12-10T12:55:09;68.32;;;20.08;;
46765;SDS011;32527;51.986;5.842;2022-12-10T12:58:34;100.20;;;21.25;;
46765;SDS011;32527;51.986;5.842;2022-12-10T13:00:41;70.60;;;20.85;;
46765;SDS011;32527;51.986;5.842;2022-12-10T13:05:48;64.63;;;19.05;;
46765;SDS011;32527;51.986;5.842;2022-12-10T13:10:44;65.50;;;20.10;;
46765;SDS011;32527;51.986;5.842;2022-12-10T13:13:22;69.68;;;20.00;;
46765;SDS011;32527;51.986;5.842;2022-12-10T13:15:51;66.95;;;20.88;;
46765;SDS011;32527;51.986;5.842;2022-12-10T13:31:05;64.63;;;20.52;;
46765;SDS011;32527;51.986;5.842;2022-12-10T13:38:56;56.13;;;17.48;;
46765;SDS011;32527;51.986;5.842;2022-12-10T13:41:29;82.97;;;24.55;;
46765;SDS011;32527;51.986;5.842;2022-12-10T13:44:31;70.90;;;20.67;;
46765;SDS011;32527;51.986;5.842;2022-12-10T13:47:04;73.15;;;20.77;;
46765;SDS011;32527;51.986;5.842;2022-12-10T14:00:08;64.13;;;17.02;;
46765;SDS011;32527;51.986;5.842;2022-12-10T14:03:43;50.65;;;16.83;;
46765;SDS011;32527;51.986;5.842;2022-12-10T14:08:21;78.57;;;20.23;;
46765;SDS011;32527;51.986;5.842;2022-12-10T14:10:52;58.75;;;19.88;;
46765;SDS011;32527;51.986;5.842;2022-12-10T14:13:19;62.88;;;20.55;;
46765;SDS011;32527;51.986;5.842;2022-12-10T14:15:53;74.53;;;20.48;;
46765;SDS011;32527;51.986;5.842;2022-12-10T14:18:22;56.60;;;18.08;;
46765;SDS011;32527;51.986;5.842;2022-12-10T14:20:50;61.83;;;18.92;;
46765;SDS011;32527;51.986;5.842;2022-12-10T14:23:27;85.93;;;20.20;;
46765;SDS011;32527;51.986;5.842;2022-12-10T14:25:58;67.60;;;18.30;;
46765;SDS011;32527;51.986;5.842;2022-12-10T14:28:24;78.60;;;19.70;;
46765;SDS011;32527;51.986;5.842;2022-12-10T14:30:50;58.97;;;17.85;;
46765;SDS011;32527;51.986;5.842;2022-12-10T14:33:17;64.55;;;18.75;;
46765;SDS011;32527;51.986;5.842;2022-12-10T14:35:47;74.28;;;17.88;;
46765;SDS011;32527;51.986;5.842;2022-12-10T14:38:18;64.30;;;17.95;;
46765;SDS011;32527;51.986;5.842;2022-12-10T14:40:50;54.45;;;18.98;;
46765;SDS011;32527;51.986;5.842;2022-12-10T14:43:38;52.75;;;17.95;;
46765;SDS011;32527;51.986;5.842;2022-12-10T14:46:04;53.38;;;18.27;;
46765;SDS011;32527;51.986;5.842;2022-12-10T14:48:38;57.22;;;17.27;;
46765;SDS011;32527;51.986;5.842;2022-12-10T14:51:13;49.67;;;16.38;;
46765;SDS011;32527;51.986;5.842;2022-12-10T14:53:41;57.72;;;17.83;;
46765;SDS011;32527;51.986;5.842;2022-12-10T14:56:07;50.45;;;17.00;;
46765;SDS011;32527;51.986;5.842;2022-12-10T14:58:40;49.28;;;17.58;;
46765;SDS011;32527;51.986;5.842;2022-12-10T15:01:21;48.45;;;17.17;;
46765;SDS011;32527;51.986;5.842;2022-12-10T15:03:53;65.63;;;17.60;;
46765;SDS011;32527;51.986;5.842;2022-12-10T15:06:21;48.72;;;16.38;;
46765;SDS011;32527;51.986;5.842;2022-12-10T15:08:48;71.50;;;18.05;;
46765;SDS011;32527;51.986;5.842;2022-12-10T15:11:15;52.58;;;15.98;;
46765;SDS011;32527;51.986;5.842;2022-12-10T15:13:44;59.60;;;18.33;;
46765;SDS011;32527;51.986;5.842;2022-12-10T15:16:16;88.85;;;19.73;;
46765;SDS011;32527;51.986;5.842;2022-12-10T15:18:43;47.28;;;16.80;;
46765;SDS011;32527;51.986;5.842;2022-12-10T15:21:11;71.00;;;17.10;;
46765;SDS011;32527;51.986;5.842;2022-12-10T15:23:43;63.92;;;18.83;;
46765;SDS011;32527;51.986;5.842;2022-12-10T15:26:22;82.75;;;19.75;;
46765;SDS011;32527;51.986;5.842;2022-12-10T15:29:14;60.37;;;18.03;;
46765;SDS011;32527;51.986;5.842;2022-12-10T15:31:47;83.78;;;18.10;;
46765;SDS011;32527;51.986;5.842;2022-12-10T15:34:15;77.20;;;19.65;;
46765;SDS011;32527;51.986;5.842;2022-12-10T15:36:49;51.47;;;16.25;;
46765;SDS011;32527;51.986;5.842;2022-12-10T15:39:37;50.30;;;16.75;;
46765;SDS011;32527;51.986;5.842;2022-12-10T15:45:24;56.00;;;18.25;;
46765;SDS011;32527;51.986;5.842;2022-12-10T15:48:10;75.03;;;19.65;;
46765;SDS011;32527;51.986;5.842;2022-12-10T15:50:37;56.33;;;19.58;;
46765;SDS011;32527;51.986;5.842;2022-12-10T15:53:07;51.95;;;18.95;;
46765;SDS011;32527;51.986;5.842;2022-12-10T15:55:37;78.28;;;20.58;;
46765;SDS011;32527;51.986;5.842;2022-12-10T15:58:05;66.00;;;19.42;;
46765;SDS011;32527;51.986;5.842;2022-12-10T16:00:37;74.80;;;20.30;;
46765;SDS011;32527;51.986;5.842;2022-12-10T16:03:09;73.07;;;21.45;;
46765;SDS011;32527;51.986;5.842;2022-12-10T16:05:37;74.78;;;22.90;;
46765;SDS011;32527;51.986;5.842;2022-12-10T16:10:46;76.00;;;21.80;;
46765;SDS011;32527;51.986;5.842;2022-12-10T16:13:16;70.97;;;19.75;;
46765;SDS011;32527;51.986;5.842;2022-12-10T16:15:46;65.78;;;19.58;;
46765;SDS011;32527;51.986;5.842;2022-12-10T16:18:19;63.45;;;20.65;;
46765;SDS011;32527;51.986;5.842;2022-12-10T16:20:45;81.45;;;21.50;;
46765;SDS011;32527;51.986;5.842;2022-12-10T16:23:11;74.30;;;21.17;;
46765;SDS011;32527;51.986;5.842;2022-12-10T16:25:39;75.50;;;21.65;;
46765;SDS011;32527;51.986;5.842;2022-12-10T16:28:16;72.18;;;20.83;;